Time;durP1;ratioP1;P1;durP2;ratioP2;P2;SDS_P1;SDS_P2;PMS_P1;PMS_P2;Temp;Humidity;BMP_temperature;BMP_pressure;BME280_temperature;BME280_humidity;BME280_pressure;Samples;Min_cycle;Max_cycle;Signal;HPM_P1;HPM_P2
2023/11/19 00:01:34;;;;;;;0.60;0.60;;;17.50;53.20;;;;;;6189314;23;20211;-82
2023/11/19 00:03:59;;;;;;;0.70;0.70;;;17.50;53.10;;;;;;6190099;23;20151;-82
2023/11/19 00:06:25;;;;;;;0.70;0.70;;;17.50;53.10;;;;;;6163787;23;20190;-82
2023/11/19 00:08:53;;;;;;;0.77;0.77;;;17.50;53.20;;;;;;6139444;23;20178;-82
2023/11/19 00:11:18;;;;;;;0.88;0.75;;;17.50;53.10;;;;;;6139664;23;20150;-84
2023/11/19 00:13:48;;;;;;;2.63;0.73;;;17.50;53.10;;;;;;6164006;23;20666;-83
2023/11/19 00:16:17;;;;;;;0.90;0.70;;;17.50;53.00;;;;;;6112622;23;20159;-82
2023/11/19 00:18:43;;;;;;;0.80;0.80;;;17.60;53.00;;;;;;6113162;23;20606;-83
2023/11/19 00:21:10;;;;;;;0.85;0.70;;;17.50;53.10;;;;;;6138778;23;20159;-83
2023/11/19 00:23:36;;;;;;;1.73;0.82;;;17.50;53.00;;;;;;6139016;23;20146;-83
2023/11/19 00:26:05;;;;;;;0.70;0.70;;;17.50;53.00;;;;;;6102970;23;20683;-83
2023/11/19 00:28:33;;;;;;;1.08;0.98;;;17.50;53.00;;;;;;6080312;23;20152;-83
2023/11/19 00:30:59;;;;;;;0.85;0.80;;;17.50;53.10;;;;;;6079971;23;20159;-83
2023/11/19 00:33:24;;;;;;;0.82;0.82;;;17.50;53.00;;;;;;6078972;23;20148;-83
2023/11/19 00:35:50;;;;;;;0.70;0.70;;;17.50;53.10;;;;;;6103486;23;20199;-82
2023/11/19 00:38:16;;;;;;;0.88;0.77;;;17.50;53.10;;;;;;6103668;23;20140;-81
2023/11/19 00:43:08;;;;;;;0.70;0.70;;;17.50;53.00;;;;;;6188075;23;20268;-83
2023/11/19 00:45:34;;;;;;;0.95;0.80;;;17.40;53.00;;;;;;6163167;23;20139;-82
2023/11/19 00:47:59;;;;;;;0.70;0.70;;;17.50;53.20;;;;;;6138566;23;20230;-82
2023/11/19 00:50:25;;;;;;;1.05;0.80;;;17.50;53.20;;;;;;6163420;23;20464;-83
2023/11/19 00:52:51;;;;;;;0.60;0.60;;;17.50;53.00;;;;;;6163668;23;20135;-82
2023/11/19 00:55:17;;;;;;;0.75;0.75;;;17.50;53.10;;;;;;6138067;23;20613;-82
2023/11/19 00:57:43;;;;;;;0.70;0.70;;;17.50;53.20;;;;;;6163819;23;20280;-83
2023/11/19 01:05:09;;;;;;;0.80;0.80;;;17.50;53.10;;;;;;6179809;23;20195;-83
2023/11/19 01:07:35;;;;;;;0.80;0.70;;;17.40;53.10;;;;;;6191857;23;20204;-83
2023/11/19 01:10:01;;;;;;;0.70;0.68;;;17.50;53.20;;;;;;6143309;23;20216;-83
2023/11/19 01:12:26;;;;;;;1.08;0.90;;;17.50;53.10;;;;;;6192395;23;20138;-83
2023/11/19 01:17:27;;;;;;;0.82;0.80;;;17.50;53.10;;;;;;6173181;23;20263;-84
2023/11/19 01:45:47;;;;;;;0.88;0.70;;;17.40;53.10;;;;;;6167069;23;20208;-83
2023/11/19 01:48:12;;;;;;;0.95;0.70;;;17.40;53.00;;;;;;6137197;23;20155;-82
2023/11/19 01:50:38;;;;;;;1.00;0.90;;;17.40;52.90;;;;;;6162570;23;20134;-83
2023/11/19 01:53:05;;;;;;;0.70;0.70;;;17.40;52.80;;;;;;6162688;23;20135;-83
2023/11/19 01:55:30;;;;;;;0.65;0.65;;;17.40;52.80;;;;;;6137215;23;20174;-83
2023/11/19 01:57:59;;;;;;;0.80;0.80;;;17.40;53.00;;;;;;6162725;23;20136;-83
2023/11/19 02:00:25;;;;;;;0.73;0.73;;;17.40;53.20;;;;;;6162413;23;20127;-84
2023/11/19 02:02:52;;;;;;;1.02;0.90;;;17.40;53.10;;;;;;6162725;23;20141;-83
2023/11/19 02:05:17;;;;;;;0.70;0.70;;;17.40;52.90;;;;;;6161542;23;20177;-84
2023/11/19 02:07:43;;;;;;;0.88;0.88;;;17.40;53.00;;;;;;6137629;23;20143;-83
2023/11/19 02:10:14;;;;;;;0.85;0.85;;;17.40;53.00;;;;;;6162717;23;20186;-83
2023/11/19 02:12:42;;;;;;;0.80;0.80;;;17.40;53.10;;;;;;6113176;23;20178;-83
2023/11/19 02:51:41;;;;;;;0.90;0.73;;;17.40;53.00;;;;;;6185438;23;20257;-83
2023/11/19 02:54:07;;;;;;;1.15;0.93;;;17.40;53.10;;;;;;6190462;23;20513;-83
2023/11/19 02:56:37;;;;;;;1.00;0.80;;;17.40;53.10;;;;;;6113773;23;20255;-82
2023/11/19 02:59:11;;;;;;;0.93;0.90;;;17.40;53.00;;;;;;6164007;23;20123;-82
2023/11/19 03:01:43;;;;;;;0.80;0.80;;;17.40;53.00;;;;;;6141294;23;20525;-83
2023/11/19 03:04:11;;;;;;;0.70;0.70;;;17.40;52.90;;;;;;6165043;23;20234;-82
2023/11/19 03:06:37;;;;;;;0.80;0.80;;;17.40;52.90;;;;;;6164485;23;20127;-82
2023/11/19 03:09:10;;;;;;;0.75;0.75;;;17.40;52.90;;;;;;6164527;23;20509;-82
2023/11/19 03:11:37;;;;;;;0.85;0.77;;;17.30;53.00;;;;;;6141068;23;20140;-82
2023/11/19 03:14:03;;;;;;;0.88;0.88;;;17.30;53.00;;;;;;6163270;23;20201;-82
2023/11/19 03:16:29;;;;;;;0.80;0.80;;;17.30;53.00;;;;;;6164390;23;20155;-82
2023/11/19 03:18:55;;;;;;;0.68;0.68;;;17.30;52.90;;;;;;6162659;23;20502;-82
2023/11/19 03:21:29;;;;;;;0.85;0.82;;;17.30;53.00;;;;;;6138390;23;20126;-82
2023/11/19 03:23:55;;;;;;;1.00;0.90;;;17.40;53.00;;;;;;6189210;23;20131;-82
2023/11/19 03:26:21;;;;;;;0.73;0.73;;;17.30;53.00;;;;;;6163849;23;20178;-81
2023/11/19 03:28:47;;;;;;;1.02;0.93;;;17.30;53.10;;;;;;6139896;23;20151;-82
2023/11/19 03:31:13;;;;;;;1.05;0.90;;;17.30;53.00;;;;;;6164129;23;20508;-82
2023/11/19 03:33:39;;;;;;;1.00;0.90;;;17.30;53.00;;;;;;6139381;23;20179;-82
2023/11/19 03:36:10;;;;;;;1.77;0.90;;;17.30;53.00;;;;;;6137576;23;20186;-83
2023/11/19 03:38:36;;;;;;;0.60;0.60;;;17.30;53.00;;;;;;6137826;23;20157;-83
2023/11/19 03:41:13;;;;;;;0.60;0.60;;;17.40;53.00;;;;;;6139514;23;20150;-83
2023/11/19 03:43:39;;;;;;;1.13;0.98;;;17.30;52.90;;;;;;6164443;23;20188;-82
2023/11/19 03:46:17;;;;;;;0.70;0.70;;;17.30;52.90;;;;;;6139977;23;20193;-82
2023/11/19 03:48:43;;;;;;;0.75;0.70;;;17.30;52.90;;;;;;6137975;23;20589;-83
2023/11/19 03:51:10;;;;;;;1.05;0.80;;;17.30;52.90;;;;;;6138446;23;20281;-82
2023/11/19 04:09:30;;;;;;;1.10;0.90;;;17.30;52.80;;;;;;6188623;23;20428;-83
2023/11/19 04:11:56;;;;;;;0.80;0.73;;;17.40;52.90;;;;;;6138626;23;20131;-82
2023/11/19 04:14:23;;;;;;;1.02;0.93;;;17.30;52.80;;;;;;6138708;23;20490;-82
2023/11/19 04:16:49;;;;;;;0.70;0.70;;;17.30;52.80;;;;;;6172647;23;20210;-83
2023/11/19 04:19:14;;;;;;;1.02;0.95;;;17.30;52.90;;;;;;6138309;23;20153;-83
2023/11/19 04:21:43;;;;;;;0.80;0.80;;;17.30;52.80;;;;;;6151709;23;20233;-83
2023/11/19 04:24:12;;;;;;;0.80;0.80;;;17.30;52.80;;;;;;6163355;23;20135;-83
2023/11/19 04:26:42;;;;;;;1.15;1.05;;;17.40;52.80;;;;;;6115149;23;20139;-83
2023/11/19 04:29:11;;;;;;;0.93;0.80;;;17.30;52.80;;;;;;6163685;23;20193;-83
2023/11/19 04:52:04;;;;;;;0.65;0.65;;;17.30;52.80;;;;;;6183667;23;20568;-82
2023/11/19 04:54:30;;;;;;;0.80;0.70;;;17.30;52.80;;;;;;6114065;23;20617;-82
2023/11/19 04:56:55;;;;;;;0.75;0.75;;;17.30;52.80;;;;;;6110881;23;20254;-82
2023/11/19 04:59:21;;;;;;;1.05;0.88;;;17.30;52.80;;;;;;6160805;23;20131;-81
2023/11/19 05:01:48;;;;;;;0.80;0.70;;;17.30;52.80;;;;;;6136346;23;20555;-82
2023/11/19 05:04:13;;;;;;;0.90;0.82;;;17.30;52.80;;;;;;6160772;23;20581;-82
2023/11/19 05:06:39;;;;;;;0.80;0.80;;;17.30;52.70;;;;;;6160176;23;20126;-82
2023/11/19 05:09:07;;;;;;;0.80;0.80;;;17.20;52.80;;;;;;6160637;23;20131;-82
2023/11/19 05:11:34;;;;;;;2.15;0.80;;;17.30;52.80;;;;;;6161516;23;20123;-84
2023/11/19 05:14:00;;;;;;;0.93;0.80;;;17.30;52.80;;;;;;6186830;23;20557;-82
2023/11/19 05:16:26;;;;;;;1.08;0.98;;;17.40;52.80;;;;;;6160994;23;20131;-82
2023/11/19 05:18:51;;;;;;;1.00;0.90;;;17.30;52.80;;;;;;6112524;23;20608;-82
2023/11/19 05:21:18;;;;;;;0.85;0.80;;;17.30;52.80;;;;;;6112427;23;20173;-82
2023/11/19 05:23:43;;;;;;;0.80;0.80;;;17.30;52.80;;;;;;6136285;23;20135;-81
2023/11/19 05:26:10;;;;;;;0.80;0.65;;;17.30;52.80;;;;;;6160661;23;20142;-82
2023/11/19 05:28:39;;;;;;;0.93;0.82;;;17.30;52.80;;;;;;6136121;23;20149;-82
2023/11/19 05:31:05;;;;;;;0.80;0.80;;;17.30;52.90;;;;;;6135652;23;20178;-81
2023/11/19 05:33:31;;;;;;;0.80;0.80;;;17.30;52.80;;;;;;6134662;23;20249;-81
2023/11/19 05:35:57;;;;;;;0.85;0.85;;;17.30;52.70;;;;;;6160978;23;20514;-80
2023/11/19 05:38:24;;;;;;;0.80;0.80;;;17.30;52.80;;;;;;6160702;23;20142;-81
2023/11/19 05:40:52;;;;;;;0.90;0.80;;;17.40;52.80;;;;;;6137047;23;20222;-81
2023/11/19 05:43:18;;;;;;;0.63;0.63;;;17.30;52.60;;;;;;6110704;23;20147;-81
2023/11/19 05:45:44;;;;;;;0.80;0.80;;;17.30;52.60;;;;;;6136425;23;20205;-81
2023/11/19 05:50:35;;;;;;;0.80;0.80;;;17.30;52.80;;;;;;6140965;23;20206;-81
2023/11/19 05:53:01;;;;;;;1.10;1.00;;;17.30;52.70;;;;;;6160264;23;20158;-81
2023/11/19 05:55:28;;;;;;;1.08;0.98;;;17.30;52.60;;;;;;6136381;23;20171;-81
2023/11/19 05:57:53;;;;;;;1.10;1.00;;;17.30;52.80;;;;;;6160062;23;20143;-82
2023/11/19 06:00:20;;;;;;;0.90;0.90;;;17.30;52.80;;;;;;6137566;23;20143;-82
2023/11/19 06:02:46;;;;;;;1.02;0.93;;;17.30;52.80;;;;;;6162280;23;20209;-82
2023/11/19 06:05:14;;;;;;;1.35;1.00;;;17.30;52.80;;;;;;6161972;23;20143;-81
2023/11/19 06:07:41;;;;;;;0.80;0.80;;;17.20;52.80;;;;;;6087667;23;20155;-82
2023/11/19 06:10:09;;;;;;;0.90;0.70;;;17.30;52.80;;;;;;6138472;23;20145;-82
2023/11/19 06:12:37;;;;;;;0.60;0.60;;;17.30;52.80;;;;;;6088617;23;20205;-81
2023/11/19 06:15:05;;;;;;;0.75;0.70;;;17.30;52.80;;;;;;6162775;23;20598;-81
2023/11/19 06:17:31;;;;;;;0.73;0.70;;;17.30;52.80;;;;;;6113127;23;20139;-81
2023/11/19 06:19:56;;;;;;;1.10;1.00;;;17.30;52.90;;;;;;6112809;23;20139;-81
2023/11/19 06:22:22;;;;;;;0.90;0.90;;;17.30;52.80;;;;;;6136734;23;20170;-81
2023/11/19 06:24:49;;;;;;;0.95;0.90;;;17.30;53.50;;;;;;6163120;23;20185;-81
2023/11/19 06:27:14;;;;;;;0.70;0.70;;;17.30;52.60;;;;;;6137917;23;20162;-82
2023/11/19 06:29:40;;;;;;;0.80;0.80;;;17.30;52.70;;;;;;6137857;23;20474;-81
2023/11/19 06:32:07;;;;;;;1.00;0.73;;;17.40;52.80;;;;;;6137010;23;20163;-81
2023/11/19 06:34:34;;;;;;;1.00;0.90;;;17.30;52.80;;;;;;6114022;23;20270;-81
2023/11/19 06:37:00;;;;;;;1.10;1.00;;;17.30;52.80;;;;;;6188173;23;20137;-81
2023/11/19 06:44:37;;;;;;;0.77;0.77;;;17.30;52.80;;;;;;6177664;23;20184;-82
2023/11/19 06:47:03;;;;;;;0.88;0.88;;;17.20;52.70;;;;;;6137526;23;20131;-82
2023/11/19 06:49:28;;;;;;;0.80;0.70;;;17.30;52.70;;;;;;6136920;23;20146;-81
2023/11/19 06:51:54;;;;;;;0.93;0.85;;;17.30;52.70;;;;;;6111942;23;20143;-81
2023/11/19 06:54:20;;;;;;;1.00;0.90;;;17.20;52.60;;;;;;6162509;23;20162;-82
2023/11/19 06:56:46;;;;;;;0.90;0.80;;;17.30;52.70;;;;;;6137649;23;20128;-82
2023/11/19 06:59:12;;;;;;;1.23;0.98;;;17.30;52.60;;;;;;6113071;23;20150;-81
2023/11/19 07:01:38;;;;;;;1.08;1.00;;;17.30;52.60;;;;;;6188096;23;20466;-82
2023/11/19 07:04:09;;;;;;;0.90;0.80;;;17.30;52.70;;;;;;6136914;23;20589;-82
2023/11/19 07:06:35;;;;;;;0.77;0.77;;;17.20;52.60;;;;;;6137770;23;20724;-82
2023/11/19 07:09:09;;;;;;;0.98;0.90;;;17.30;52.70;;;;;;6113863;23;20153;-82
2023/11/19 07:11:36;;;;;;;0.73;0.65;;;17.30;52.60;;;;;;6163128;23;20130;-82
2023/11/19 07:14:02;;;;;;;1.00;0.90;;;17.30;53.30;;;;;;6161378;23;20173;-82
2023/11/19 07:16:31;;;;;;;1.02;0.90;;;17.30;52.60;;;;;;6159939;23;20166;-82
2023/11/19 07:18:58;;;;;;;0.75;0.75;;;17.30;52.60;;;;;;6161305;23;20197;-82
2023/11/19 07:21:24;;;;;;;0.85;0.80;;;17.30;52.60;;;;;;6137896;23;20147;-82
2023/11/19 07:23:51;;;;;;;0.70;0.70;;;17.30;52.50;;;;;;6137046;23;20566;-82
2023/11/19 07:26:17;;;;;;;0.80;0.80;;;17.20;52.50;;;;;;6112624;23;20155;-81
2023/11/19 07:28:45;;;;;;;0.95;0.90;;;17.30;52.60;;;;;;6112940;23;20230;-81
2023/11/19 07:31:10;;;;;;;1.02;0.93;;;17.30;52.60;;;;;;6112740;23;20143;-82
2023/11/19 07:33:36;;;;;;;0.88;0.80;;;17.30;52.70;;;;;;6137426;23;20551;-81
2023/11/19 07:36:02;;;;;;;0.98;0.70;;;17.30;52.60;;;;;;6160588;23;20253;-82
2023/11/19 07:40:54;;;;;;;1.05;0.88;;;17.30;52.60;;;;;;6160416;23;20203;-81
2023/11/19 07:43:19;;;;;;;1.10;1.00;;;17.20;52.60;;;;;;6136694;23;20170;-81
2023/11/19 07:45:45;;;;;;;0.85;0.85;;;17.30;52.70;;;;;;6160992;23;20155;-82
2023/11/19 07:48:17;;;;;;;0.85;0.82;;;17.20;52.60;;;;;;6161912;23;20210;-82
2023/11/19 07:50:43;;;;;;;0.80;0.80;;;17.30;52.70;;;;;;6111911;23;20147;-82
2023/11/19 07:53:12;;;;;;;1.00;0.90;;;17.30;52.70;;;;;;6138169;23;20194;-81
2023/11/19 07:55:38;;;;;;;0.90;0.73;;;17.20;52.70;;;;;;6136679;23;20186;-82
2023/11/19 07:58:13;;;;;;;2.38;0.95;;;17.20;52.70;;;;;;6164301;23;20131;-82
2023/11/19 08:00:40;;;;;;;6.50;1.00;;;17.30;52.50;;;;;;6083124;23;20654;-81
2023/11/19 08:03:06;;;;;;;1.80;0.70;;;17.30;52.40;;;;;;6101895;23;20148;-81
2023/11/19 08:05:36;;;;;;;1.83;1.00;;;17.40;52.30;;;;;;6127574;23;20179;-82
2023/11/19 08:08:21;;;;;;;1.77;0.90;;;17.40;52.20;;;;;;6105298;23;20171;-82
2023/11/19 08:10:56;;;;;;;1.38;0.82;;;17.50;52.10;;;;;;6041247;23;20176;-82
2023/11/19 08:13:25;;;;;;;3.13;0.80;;;17.50;51.50;;;;;;6081195;23;20166;-83
2023/11/19 08:16:01;;;;;;;2.17;0.85;;;17.60;51.50;;;;;;6085099;23;20210;-83
2023/11/19 08:18:28;;;;;;;3.35;0.95;;;17.60;51.20;;;;;;6055994;23;20155;-81
2023/11/19 08:21:01;;;;;;;2.17;0.90;;;17.70;51.20;;;;;;6059333;23;20145;-83
2023/11/19 08:23:28;;;;;;;3.22;0.75;;;17.80;50.90;;;;;;6080522;23;20473;-83
2023/11/19 08:59:54;;;;;;;12.35;1.58;;;18.10;50.50;;;;;;6164732;23;20236;-83
2023/11/19 09:02:42;;;;;;;10.05;1.38;;;18.10;50.30;;;;;;6071709;23;20170;-82
2023/11/19 09:05:51;;;;;;;8.30;1.30;;;18.10;51.00;;;;;;6028430;23;20253;-83
2023/11/19 09:08:31;;;;;;;10.27;1.20;;;18.20;50.80;;;;;;6043337;23;20149;-85
2023/11/19 09:11:10;;;;;;;7.35;1.48;;;18.20;51.00;;;;;;6054588;23;20134;-84
2023/11/19 09:13:36;;;;;;;10.93;1.63;;;18.10;50.90;;;;;;6025389;23;20149;-84
2023/11/19 09:16:09;;;;;;;10.80;1.70;;;18.20;50.60;;;;;;6053940;23;20681;-83
2023/11/19 09:18:35;;;;;;;7.88;1.50;;;18.20;50.60;;;;;;6002520;23;20296;-84
2023/11/19 09:21:32;;;;;;;12.15;1.92;;;18.20;50.90;;;;;;6049804;23;20213;-84
2023/11/19 09:23:59;;;;;;;13.20;1.55;;;18.20;50.90;;;;;;6019763;23;20176;-84
2023/11/19 09:26:25;;;;;;;12.07;1.50;;;18.20;50.90;;;;;;5949644;23;20157;-84
2023/11/19 09:28:53;;;;;;;14.43;1.73;;;18.20;51.00;;;;;;6002130;23;20153;-85
2023/11/19 09:31:29;;;;;;;11.85;1.80;;;18.20;50.60;;;;;;5977520;23;20154;-84
2023/11/19 09:33:55;;;;;;;8.70;1.40;;;18.20;51.00;;;;;;6000645;23;20178;-84
2023/11/19 09:36:43;;;;;;;14.38;1.70;;;18.20;50.90;;;;;;5965155;24;20159;-84
2023/11/19 09:39:43;;;;;;;19.55;2.22;;;18.20;51.00;;;;;;6002609;23;20190;-85
2023/11/19 09:42:12;;;;;;;11.60;1.60;;;18.30;51.10;;;;;;6004007;23;20155;-85
2023/11/19 09:44:45;;;;;;;19.70;1.92;;;18.30;51.30;;;;;;5946316;24;20175;-84
2023/11/19 09:47:14;;;;;;;21.17;2.17;;;18.30;51.10;;;;;;5989694;24;20617;-83
2023/11/19 09:49:54;;;;;;;28.90;2.60;;;18.30;51.30;;;;;;5930940;24;20195;-83
2023/11/19 09:52:30;;;;;;;41.20;2.78;;;18.40;51.30;;;;;;5910228;24;20173;-82
2023/11/19 09:55:09;;;;;;;26.33;2.63;;;18.30;51.50;;;;;;5924991;24;20229;-81
2023/11/19 09:57:46;;;;;;;39.30;3.60;;;18.40;51.40;;;;;;5940778;24;20156;-84
2023/11/19 10:00:16;;;;;;;35.88;4.00;;;18.40;51.70;;;;;;5792521;24;1651098;-82
2023/11/19 10:03:18;;;;;;;;;;;;;;;;;;;;;
2023/11/19 10:10:44;;;;;;;23.63;2.33;;;18.30;52.00;;;;;;6154416;23;20209;-82
2023/11/19 10:13:14;;;;;;;27.13;2.40;;;18.40;51.20;;;;;;6139682;23;20166;-82
2023/11/19 10:15:41;;;;;;;22.73;2.55;;;18.40;51.40;;;;;;6144924;23;20183;-79
2023/11/19 10:18:14;;;;;;;22.80;2.35;;;18.40;51.40;;;;;;6149494;23;20147;-82
2023/11/19 10:20:44;;;;;;;21.92;2.72;;;18.40;51.80;;;;;;6150677;23;20146;-81
2023/11/19 10:23:24;;;;;;;23.17;2.05;;;18.30;51.50;;;;;;6085283;23;20153;-82
2023/11/19 10:26:02;;;;;;;22.15;2.08;;;18.40;52.10;;;;;;6087416;23;20172;-82
2023/11/19 10:28:44;;;;;;;24.70;2.40;;;18.30;52.30;;;;;;6060134;23;20176;-82
2023/11/19 10:31:16;;;;;;;23.08;2.28;;;18.40;52.20;;;;;;6059291;23;20163;-82
2023/11/19 10:33:49;;;;;;;24.63;2.53;;;18.30;52.50;;;;;;6057271;23;20149;-83
2023/11/19 10:36:15;;;;;;;30.90;2.50;;;18.30;52.10;;;;;;6025777;23;20169;-82
2023/11/19 10:38:51;;;;;;;19.65;1.90;;;18.30;52.40;;;;;;6049571;23;20213;-82
2023/11/19 10:41:30;;;;;;;15.77;1.98;;;18.30;52.10;;;;;;6020972;23;20178;-82
2023/11/19 10:43:59;;;;;;;15.50;2.38;;;18.30;51.80;;;;;;6016959;23;20260;-83
2023/11/19 10:46:51;;;;;;;;;;;;;;;;;;;;;
2023/11/19 10:49:20;;;;;;;18.02;1.85;;;18.30;51.80;;;;;;6041330;23;20230;-83
2023/11/19 10:51:46;;;;;;;19.48;1.98;;;18.40;52.60;;;;;;6007358;23;20230;-82
2023/11/19 10:54:56;;;;;;;12.43;2.05;;;18.30;51.80;;;;;;6039843;23;20189;-83
2023/11/19 10:57:34;;;;;;;14.30;2.08;;;18.30;52.60;;;;;;6066129;23;20160;-84
2023/11/19 11:00:12;;;;;;;16.50;1.80;;;18.30;52.30;;;;;;5990305;23;20153;-82
2023/11/19 11:02:47;;;;;;;18.48;1.85;;;18.40;52.00;;;;;;6000637;23;20237;-82
2023/11/19 11:05:17;;;;;;;13.98;2.10;;;18.40;52.10;;;;;;6003512;23;20149;-82
2023/11/19 11:07:47;;;;;;;14.57;1.88;;;18.40;52.10;;;;;;6008542;23;20154;-82
2023/11/19 11:10:13;;;;;;;18.92;2.17;;;18.50;52.80;;;;;;6054881;23;20205;-82
2023/11/19 11:12:39;;;;;;;28.50;2.88;;;18.30;52.50;;;;;;6029226;23;20185;-81
2023/11/19 11:15:11;;;;;;;12.38;1.83;;;18.40;52.70;;;;;;6030677;23;20195;-82
2023/11/19 11:17:40;;;;;;;17.98;1.83;;;18.40;53.00;;;;;;6010081;23;20161;-83
2023/11/19 11:20:08;;;;;;;16.90;1.60;;;18.40;52.30;;;;;;6053473;23;20167;-84
2023/11/19 11:22:42;;;;;;;17.23;1.80;;;18.40;52.00;;;;;;6027902;23;20160;-83
2023/11/19 11:25:38;;;;;;;14.73;1.98;;;18.40;51.60;;;;;;6053505;23;20198;-83
2023/11/19 11:28:36;;;;;;;17.13;2.40;;;18.40;50.90;;;;;;6115784;23;20155;-83
2023/11/19 11:31:25;;;;;;;12.60;1.83;;;18.40;51.20;;;;;;6089479;23;20152;-82
2023/11/19 11:34:15;;;;;;;10.70;1.75;;;18.40;50.30;;;;;;6116766;23;20657;-82
2023/11/19 11:37:34;;;;;;;;;;;;;;;;;;;;;
2023/11/19 11:40:15;;;;;;;12.05;1.95;;;18.40;51.20;;;;;;6150614;23;20162;-83
2023/11/19 11:42:55;;;;;;;14.68;2.00;;;18.30;51.70;;;;;;6173651;23;20153;-83
2023/11/19 11:45:43;;;;;;;12.80;1.50;;;18.30;52.10;;;;;;6147393;23;20193;-84
2023/11/19 11:48:17;;;;;;;11.20;1.67;;;18.30;51.70;;;;;;6173687;23;20139;-83
2023/11/19 11:50:53;;;;;;;26.02;2.03;;;18.30;52.00;;;;;;6170193;23;20166;-83
2023/11/19 11:53:22;;;;;;;13.85;1.70;;;18.40;52.30;;;;;;6123105;23;20147;-84
2023/11/19 11:55:58;;;;;;;10.90;1.65;;;18.40;51.60;;;;;;6172834;23;20247;-83
2023/11/19 11:58:31;;;;;;;17.25;2.13;;;18.30;51.80;;;;;;6152460;23;20134;-83
2023/11/19 12:01:02;;;;;;;20.75;2.00;;;18.40;51.80;;;;;;6119239;23;20515;-83
2023/11/19 12:03:30;;;;;;;14.02;2.00;;;18.30;51.50;;;;;;6140552;23;20545;-83
2023/11/19 12:05:56;;;;;;;24.25;2.50;;;18.30;52.10;;;;;;6091373;23;20256;-83
2023/11/19 12:08:26;;;;;;;13.25;1.92;;;18.30;51.50;;;;;;6117688;23;20148;-85
2023/11/19 12:10:58;;;;;;;12.55;1.67;;;18.30;50.60;;;;;;6093604;23;20605;-83
2023/11/19 12:44:29;;;;;;;7.78;1.60;;;18.20;52.50;;;;;;6191298;23;20198;-83
2023/11/19 12:47:11;;;;;;;8.13;1.80;;;18.20;52.20;;;;;;6172070;23;20190;-83
2023/11/19 12:49:39;;;;;;;7.05;1.42;;;18.20;51.80;;;;;;6124390;23;20139;-83
2023/11/19 12:52:12;;;;;;;9.95;1.73;;;18.30;52.00;;;;;;6124733;23;20131;-82
2023/11/19 12:54:38;;;;;;;11.60;1.48;;;18.30;51.20;;;;;;6198120;23;20174;-82
2023/11/19 12:57:08;;;;;;;8.65;1.48;;;18.30;51.40;;;;;;6147937;23;20133;-83
2023/11/19 12:59:34;;;;;;;9.88;1.67;;;18.30;51.40;;;;;;6200387;23;20131;-83
2023/11/19 13:02:10;;;;;;;12.90;1.38;;;18.30;50.80;;;;;;6147663;23;20577;-83
2023/11/19 13:04:43;;;;;;;8.43;1.42;;;18.40;51.00;;;;;;6149712;23;20157;-83
2023/11/19 13:07:10;;;;;;;12.80;1.63;;;18.30;50.50;;;;;;6123777;23;20242;-84
2023/11/19 13:09:36;;;;;;;8.48;1.20;;;18.40;51.40;;;;;;6172657;23;20135;-83
2023/11/19 13:12:12;;;;;;;10.68;1.63;;;18.30;51.50;;;;;;6171295;23;20161;-82
2023/11/19 13:14:38;;;;;;;8.55;1.80;;;18.30;51.70;;;;;;6121184;23;20170;-82
2023/11/19 13:17:20;;;;;;;6.05;1.20;;;18.30;52.10;;;;;;6174328;23;20160;-85
2023/11/19 13:20:01;;;;;;;9.02;1.92;;;18.30;51.50;;;;;;6149346;23;20190;-84
2023/11/19 13:22:31;;;;;;;4.00;1.30;;;18.20;52.50;;;;;;6131102;23;20619;-83
2023/11/19 13:24:57;;;;;;;13.90;1.40;;;18.20;51.70;;;;;;6110759;23;20186;-83
2023/11/19 13:27:28;;;;;;;11.07;1.55;;;18.20;52.20;;;;;;6112848;23;20148;-83
2023/11/19 13:30:11;;;;;;;8.23;1.42;;;18.20;52.00;;;;;;6090321;23;20255;-83
2023/11/19 13:32:46;;;;;;;7.97;1.40;;;18.30;51.60;;;;;;6031847;23;20157;-83
2023/11/19 13:35:14;;;;;;;7.78;1.60;;;18.30;52.40;;;;;;6032375;23;20194;-83
2023/11/19 13:37:40;;;;;;;3.00;1.20;;;18.30;51.90;;;;;;6034825;23;20161;-83
2023/11/19 13:40:09;;;;;;;4.70;1.35;;;18.30;52.60;;;;;;6033944;23;20153;-83
2023/11/19 13:42:37;;;;;;;6.95;1.40;;;18.30;51.80;;;;;;6034787;23;20157;-82
2023/11/19 13:45:12;;;;;;;3.17;1.05;;;18.30;52.40;;;;;;6034551;23;20228;-83
2023/11/19 13:47:41;;;;;;;7.25;1.13;;;18.40;52.10;;;;;;6058595;23;20489;-83
2023/11/19 13:50:11;;;;;;;6.38;1.42;;;18.40;51.80;;;;;;6010679;23;20153;-82
2023/11/19 13:52:38;;;;;;;4.20;1.10;;;18.30;51.70;;;;;;6030971;23;20228;-82
2023/11/19 13:55:18;;;;;;;3.47;1.20;;;18.40;51.80;;;;;;6080277;23;20263;-83
2023/11/19 13:57:54;;;;;;;3.20;1.15;;;18.40;52.10;;;;;;6059357;23;20153;-83
2023/11/19 14:00:22;;;;;;;3.58;1.13;;;18.40;51.90;;;;;;6082501;23;20168;-84
2023/11/19 14:02:49;;;;;;;10.30;1.00;;;18.40;51.90;;;;;;6081417;23;20556;-82
2023/11/19 14:05:19;;;;;;;7.07;1.50;;;18.40;52.30;;;;;;6082807;23;20163;-83
2023/11/19 14:07:56;;;;;;;6.22;1.50;;;18.40;52.00;;;;;;5987613;23;20500;-83
2023/11/19 14:10:25;;;;;;;7.85;1.30;;;18.40;52.00;;;;;;6045241;23;20177;-82
2023/11/19 14:12:56;;;;;;;6.18;1.30;;;18.40;52.20;;;;;;6025921;23;20157;-81
2023/11/19 14:15:26;;;;;;;7.35;1.30;;;18.30;51.10;;;;;;6056092;23;20189;-81
2023/11/19 14:17:59;;;;;;;5.38;1.50;;;18.40;50.20;;;;;;6036738;23;20149;-83
2023/11/19 14:20:38;;;;;;;4.53;1.30;;;18.50;50.70;;;;;;6061734;23;20153;-82
2023/11/19 14:23:06;;;;;;;5.32;1.45;;;18.50;50.30;;;;;;6024141;23;20172;-83
2023/11/19 14:25:38;;;;;;;3.22;1.48;;;18.40;49.90;;;;;;6043602;23;20156;-83
2023/11/19 14:28:19;;;;;;;6.28;1.50;;;18.40;49.90;;;;;;6013239;23;20165;-81
2023/11/19 14:30:53;;;;;;;2.58;1.27;;;18.50;50.00;;;;;;6031869;23;20157;-82
2023/11/19 14:33:28;;;;;;;3.50;1.23;;;18.50;50.30;;;;;;6031975;23;20162;-83
2023/11/19 14:36:00;;;;;;;5.15;1.23;;;18.50;51.00;;;;;;6007659;23;20189;-82
2023/11/19 14:38:28;;;;;;;1.17;0.85;;;18.50;50.50;;;;;;6058634;23;20149;-83
2023/11/19 14:40:56;;;;;;;1.90;1.20;;;18.50;50.40;;;;;;6056599;23;20199;-82
2023/11/19 14:43:23;;;;;;;5.35;1.33;;;18.50;50.50;;;;;;6139167;23;20200;-84
2023/11/19 14:45:53;;;;;;;4.25;1.27;;;18.50;51.90;;;;;;6116380;23;20141;-82
2023/11/19 14:48:28;;;;;;;7.55;1.55;;;18.50;50.80;;;;;;6093473;23;20247;-83
2023/11/19 14:51:31;;;;;;;20.58;1.90;;;18.50;51.80;;;;;;6084140;23;20153;-84
2023/11/19 14:54:15;;;;;;;9.00;1.40;;;18.40;50.90;;;;;;5942954;24;20159;-82
2023/11/19 14:56:42;;;;;;;7.07;1.58;;;18.40;51.50;;;;;;5943266;24;20193;-83
2023/11/19 14:59:07;;;;;;;11.45;1.40;;;18.40;51.80;;;;;;5980297;24;20655;-83
2023/11/19 15:01:34;;;;;;;8.45;1.50;;;18.30;51.10;;;;;;5994890;24;20147;-84
2023/11/19 15:04:00;;;;;;;3.83;1.60;;;18.30;50.70;;;;;;5971690;24;20727;-84
2023/11/19 15:06:33;;;;;;;6.30;1.40;;;18.40;50.50;;;;;;5995208;24;20155;-83
2023/11/19 15:09:00;;;;;;;1.60;1.15;;;18.40;50.70;;;;;;5924711;24;20155;-84
2023/11/19 15:11:33;;;;;;;4.97;1.40;;;18.40;51.40;;;;;;5992278;24;20170;-85
2023/11/19 15:14:06;;;;;;;3.17;1.27;;;18.40;51.00;;;;;;5897023;24;20305;-84
2023/11/19 15:16:34;;;;;;;2.95;1.20;;;18.40;51.20;;;;;;5966783;24;20184;-85
2023/11/19 15:19:03;;;;;;;3.78;1.33;;;18.40;51.40;;;;;;5943059;24;20221;-83
2023/11/19 15:21:29;;;;;;;1.33;0.98;;;18.40;51.10;;;;;;5961539;23;20150;-84
2023/11/19 15:23:56;;;;;;;2.58;1.15;;;18.40;51.40;;;;;;5995904;23;20161;-83
2023/11/19 15:26:22;;;;;;;2.20;1.00;;;18.40;52.50;;;;;;5997118;23;20238;-84
2023/11/19 15:28:49;;;;;;;5.38;2.00;;;18.40;51.90;;;;;;5997182;23;20161;-84
2023/11/19 15:31:22;;;;;;;3.25;1.40;;;18.30;51.40;;;;;;6018811;23;20158;-86
2023/11/19 15:33:55;;;;;;;4.93;1.40;;;18.50;50.70;;;;;;6047828;23;20505;-84
2023/11/19 15:36:22;;;;;;;3.05;1.30;;;18.50;50.50;;;;;;6051448;23;20158;-84
2023/11/19 15:38:50;;;;;;;2.97;1.27;;;18.40;50.20;;;;;;6051049;23;20154;-84
2023/11/19 15:41:17;;;;;;;5.75;1.30;;;18.40;50.30;;;;;;6051278;23;20252;-84
2023/11/19 15:43:43;;;;;;;3.17;1.40;;;18.40;50.80;;;;;;6046466;23;20201;-84
2023/11/19 15:46:16;;;;;;;3.33;1.48;;;18.40;51.20;;;;;;6057023;23;20161;-84
2023/11/19 15:48:47;;;;;;;4.95;1.80;;;18.40;50.90;;;;;;6107710;23;20134;-85
2023/11/19 15:51:16;;;;;;;5.22;1.50;;;18.30;51.60;;;;;;6106875;23;20161;-84
2023/11/19 15:53:46;;;;;;;6.25;1.25;;;18.40;51.80;;;;;;6143055;23;20127;-84
2023/11/19 15:56:15;;;;;;;5.15;1.50;;;18.40;51.10;;;;;;6168018;23;20629;-86
2023/11/19 15:58:40;;;;;;;5.50;1.30;;;18.30;51.50;;;;;;6144010;23;20154;-84
2023/11/19 16:01:08;;;;;;;1.92;1.15;;;18.30;51.90;;;;;;6169892;23;20137;-84
2023/11/19 16:03:49;;;;;;;4.25;1.58;;;18.30;52.10;;;;;;6139981;23;20134;-83
2023/11/19 16:06:15;;;;;;;5.25;1.50;;;18.30;51.70;;;;;;6163390;23;20150;-83
2023/11/19 16:08:42;;;;;;;4.78;1.25;;;18.30;51.00;;;;;;6163858;23;20135;-83
2023/11/19 16:11:09;;;;;;;4.25;1.42;;;18.30;51.70;;;;;;6162966;23;20130;-83
2023/11/19 16:13:38;;;;;;;3.25;1.35;;;18.30;51.80;;;;;;6161909;23;20139;-83